sensor_id;sensor_type;location;lat;lon;timestamp;pressure;altitude;pressure_sealevel;temperature;humidity
8160;BME280;27404;52.398;9.646;2023-02-12T00:01:49;102855.69;;;6.70;100.00
8160;BME280;27404;52.398;9.646;2023-02-12T00:04:14;102854.63;;;6.62;100.00
8160;BME280;27404;52.398;9.646;2023-02-12T00:06:40;102855.56;;;6.71;100.00
8160;BME280;27404;52.398;9.646;2023-02-12T00:09:06;102856.19;;;6.65;100.00
8160;BME280;27404;52.398;9.646;2023-02-12T00:11:31;102869.59;;;6.66;100.00
8160;BME280;27404;52.398;9.646;2023-02-12T00:13:57;102864.94;;;6.59;100.00
8160;BME280;27404;52.398;9.646;2023-02-12T00:16:25;102865.81;;;6.59;100.00
8160;BME280;27404;52.398;9.646;2023-02-12T00:18:53;102872.16;;;6.50;100.00
8160;BME280;27404;52.398;9.646;2023-02-12T00:21:20;102874.72;;;6.51;100.00
8160;BME280;27404;52.398;9.646;2023-02-12T00:23:46;102875.97;;;6.57;100.00
8160;BME280;27404;52.398;9.646;2023-02-12T00:26:14;102877.69;;;6.58;100.00
8160;BME280;27404;52.398;9.646;2023-02-12T00:28:41;102885.16;;;6.56;100.00
8160;BME280;27404;52.398;9.646;2023-02-12T00:31:09;102888.69;;;6.57;100.00
8160;BME280;27404;52.398;9.646;2023-02-12T00:33:35;102888.59;;;6.48;100.00
8160;BME280;27404;52.398;9.646;2023-02-12T00:36:00;102887.50;;;6.41;100.00
8160;BME280;27404;52.398;9.646;2023-02-12T00:38:26;102886.06;;;6.47;100.00
8160;BME280;27404;52.398;9.646;2023-02-12T00:40:52;102880.38;;;6.40;100.00
8160;BME280;27404;52.398;9.646;2023-02-12T00:43:18;102886.81;;;6.39;100.00
8160;BME280;27404;52.398;9.646;2023-02-12T00:45:45;102881.66;;;6.36;100.00
8160;BME280;27404;52.398;9.646;2023-02-12T00:48:10;102886.25;;;6.35;100.00
8160;BME280;27404;52.398;9.646;2023-02-12T00:50:36;102888.50;;;6.40;100.00
8160;BME280;27404;52.398;9.646;2023-02-12T00:53:02;102889.91;;;6.44;100.00
8160;BME280;27404;52.398;9.646;2023-02-12T00:55:27;102896.34;;;6.43;100.00
8160;BME280;27404;52.398;9.646;2023-02-12T00:57:53;102897.25;;;6.34;100.00
8160;BME280;27404;52.398;9.646;2023-02-12T01:00:18;102900.38;;;6.39;100.00
8160;BME280;27404;52.398;9.646;2023-02-12T01:02:44;102886.81;;;6.39;100.00
8160;BME280;27404;52.398;9.646;2023-02-12T01:05:09;102893.09;;;6.40;100.00
8160;BME280;27404;52.398;9.646;2023-02-12T01:07:35;102893.09;;;6.40;100.00
8160;BME280;27404;52.398;9.646;2023-02-12T01:10:03;102887.97;;;6.36;100.00
8160;BME280;27404;52.398;9.646;2023-02-12T01:12:29;102897.97;;;6.36;100.00
8160;BME280;27404;52.398;9.646;2023-02-12T01:14:54;102899.91;;;6.26;100.00
8160;BME280;27404;52.398;9.646;2023-02-12T01:17:20;102892.31;;;6.29;100.00
8160;BME280;27404;52.398;9.646;2023-02-12T01:19:45;102897.78;;;6.19;100.00
8160;BME280;27404;52.398;9.646;2023-02-12T01:22:10;102903.63;;;6.25;100.00
8160;BME280;27404;52.398;9.646;2023-02-12T01:24:36;102901.22;;;6.21;100.00
8160;BME280;27404;52.398;9.646;2023-02-12T01:27:01;102899.53;;;6.11;100.00
8160;BME280;27404;52.398;9.646;2023-02-12T01:29:27;102905.38;;;6.16;100.00
8160;BME280;27404;52.398;9.646;2023-02-12T01:31:52;102903.53;;;6.16;100.00
8160;BME280;27404;52.398;9.646;2023-02-12T01:34:17;102892.97;;;6.13;100.00
8160;BME280;27404;52.398;9.646;2023-02-12T01:36:43;102897.97;;;6.08;100.00
8160;BME280;27404;52.398;9.646;2023-02-12T01:39:09;102895.97;;;6.10;100.00
8160;BME280;27404;52.398;9.646;2023-02-12T01:41:39;102886.81;;;6.11;100.00
8160;BME280;27404;52.398;9.646;2023-02-12T01:44:15;102894.25;;;6.09;100.00
8160;BME280;27404;52.398;9.646;2023-02-12T01:46:41;102901.94;;;6.14;100.00
8160;BME280;27404;52.398;9.646;2023-02-12T01:49:15;102910.16;;;6.04;100.00
8160;BME280;27404;52.398;9.646;2023-02-12T01:51:44;102910.09;;;6.14;100.00
8160;BME280;27404;52.398;9.646;2023-02-12T01:54:12;102912.41;;;6.08;100.00
8160;BME280;27404;52.398;9.646;2023-02-12T01:56:39;102903.66;;;6.15;100.00
8160;BME280;27404;52.398;9.646;2023-02-12T01:59:06;102910.97;;;6.14;100.00
8160;BME280;27404;52.398;9.646;2023-02-12T02:01:33;102902.66;;;6.16;100.00
8160;BME280;27404;52.398;9.646;2023-02-12T02:04:13;102905.84;;;6.11;100.00
8160;BME280;27404;52.398;9.646;2023-02-12T02:06:58;102908.69;;;6.10;100.00
8160;BME280;27404;52.398;9.646;2023-02-12T02:09:24;102912.09;;;6.12;100.00
8160;BME280;27404;52.398;9.646;2023-02-12T02:11:50;102919.53;;;6.10;100.00
8160;BME280;27404;52.398;9.646;2023-02-12T02:14:36;102910.16;;;6.04;100.00
8160;BME280;27404;52.398;9.646;2023-02-12T02:33:54;102898.53;;;6.12;100.00
8160;BME280;27404;52.398;9.646;2023-02-12T02:36:27;102896.97;;;6.09;100.00
8160;BME280;27404;52.398;9.646;2023-02-12T02:39:13;102897.13;;;6.07;100.00
8160;BME280;27404;52.398;9.646;2023-02-12T02:42:09;102903.13;;;6.11;100.00
8160;BME280;27404;52.398;9.646;2023-02-12T02:44:47;102901.41;;;6.10;100.00
8160;BME280;27404;52.398;9.646;2023-02-12T02:47:16;102892.56;;;6.08;100.00
8160;BME280;27404;52.398;9.646;2023-02-12T02:49:46;102894.25;;;6.09;100.00
8160;BME280;27404;52.398;9.646;2023-02-12T02:52:21;102891.56;;;6.09;100.00
8160;BME280;27404;52.398;9.646;2023-02-12T02:54:52;102890.25;;;6.03;100.00
8160;BME280;27404;52.398;9.646;2023-02-12T02:57:24;102889.25;;;6.04;100.00
8160;BME280;27404;52.398;9.646;2023-02-12T02:59:58;102899.28;;;6.04;100.00
8160;BME280;27404;52.398;9.646;2023-02-12T03:02:34;102881.84;;;5.97;100.00
8160;BME280;27404;52.398;9.646;2023-02-12T03:05:05;102884.03;;;5.93;100.00
8160;BME280;27404;52.398;9.646;2023-02-12T03:07:36;102891.28;;;5.92;100.00
8160;BME280;27404;52.398;9.646;2023-02-12T03:10:12;102885.88;;;5.92;100.00
8160;BME280;27404;52.398;9.646;2023-02-12T03:12:47;102898.88;;;5.89;100.00
8160;BME280;27404;52.398;9.646;2023-02-12T03:15:52;102904.91;;;5.83;100.00
8160;BME280;27404;52.398;9.646;2023-02-12T03:18:23;102908.91;;;5.78;100.00
8160;BME280;27404;52.398;9.646;2023-02-12T03:20:56;102908.34;;;5.85;100.00
8160;BME280;27404;52.398;9.646;2023-02-12T03:23:25;102916.03;;;5.89;100.00
8160;BME280;27404;52.398;9.646;2023-02-12T03:26:13;102914.19;;;5.80;100.00
8160;BME280;27404;52.398;9.646;2023-02-12T03:28:42;102912.88;;;5.84;100.00
8160;BME280;27404;52.398;9.646;2023-02-12T03:37:42;102930.34;;;5.82;100.00
8160;BME280;27404;52.398;9.646;2023-02-12T03:40:40;102925.22;;;5.78;100.00
8160;BME280;27404;52.398;9.646;2023-02-12T03:45:49;102935.22;;;5.68;100.00
8160;BME280;27404;52.398;9.646;2023-02-12T03:53:11;102937.50;;;5.73;100.00
8160;BME280;27404;52.398;9.646;2023-02-12T03:55:40;102947.50;;;5.72;100.00
8160;BME280;27404;52.398;9.646;2023-02-12T03:58:08;102954.63;;;5.73;100.00
8160;BME280;27404;52.398;9.646;2023-02-12T04:00:37;102953.63;;;5.74;100.00
8160;BME280;27404;52.398;9.646;2023-02-12T04:03:04;102956.66;;;5.71;100.00
8160;BME280;27404;52.398;9.646;2023-02-12T04:05:30;102950.22;;;5.72;100.00
8160;BME280;27404;52.398;9.646;2023-02-12T04:07:57;102963.91;;;5.71;100.00
8160;BME280;27404;52.398;9.646;2023-02-12T04:13:41;102959.34;;;5.71;100.00
8160;BME280;27404;52.398;9.646;2023-02-12T04:16:21;102968.78;;;5.67;100.00
8160;BME280;27404;52.398;9.646;2023-02-12T04:18:49;102970.34;;;5.70;100.00
8160;BME280;27404;52.398;9.646;2023-02-12T04:21:49;102969.63;;;5.68;100.00
8160;BME280;27404;52.398;9.646;2023-02-12T04:24:27;102973.63;;;5.63;100.00
8160;BME280;27404;52.398;9.646;2023-02-12T04:27:46;102982.94;;;5.61;100.00
8160;BME280;27404;52.398;9.646;2023-02-12T04:29:53;102985.91;;;5.68;100.00
8160;BME280;27404;52.398;9.646;2023-02-12T04:32:45;102980.78;;;5.74;100.00
8160;BME280;27404;52.398;9.646;2023-02-12T04:35:14;102984.22;;;5.76;100.00
8160;BME280;27404;52.398;9.646;2023-02-12T04:38:14;102985.63;;;5.71;100.00
8160;BME280;27404;52.398;9.646;2023-02-12T04:40:41;102989.78;;;5.65;100.00
8160;BME280;27404;52.398;9.646;2023-02-12T04:43:08;102989.34;;;5.70;100.00
8160;BME280;27404;52.398;9.646;2023-02-12T04:45:34;102996.63;;;5.69;100.00
8160;BME280;27404;52.398;9.646;2023-02-12T04:48:01;102992.06;;;5.60;100.00
8160;BME280;27404;52.398;9.646;2023-02-12T04:50:43;102987.19;;;5.63;100.00
8160;BME280;27404;52.398;9.646;2023-02-12T04:53:11;102990.81;;;5.54;100.00
8160;BME280;27404;52.398;9.646;2023-02-12T04:55:36;102989.94;;;5.54;100.00
8160;BME280;27404;52.398;9.646;2023-02-12T04:58:02;102985.09;;;5.57;100.00
8160;BME280;27404;52.398;9.646;2023-02-12T05:00:28;102994.22;;;5.56;100.00
8160;BME280;27404;52.398;9.646;2023-02-12T05:02:54;102985.50;;;5.53;100.00
8160;BME280;27404;52.398;9.646;2023-02-12T05:05:19;102987.78;;;5.47;100.00
8160;BME280;27404;52.398;9.646;2023-02-12T05:07:45;102984.09;;;5.48;100.00
8160;BME280;27404;52.398;9.646;2023-02-12T05:10:10;102988.38;;;5.51;100.00
8160;BME280;27404;52.398;9.646;2023-02-12T05:12:36;102988.38;;;5.51;100.00
8160;BME280;27404;52.398;9.646;2023-02-12T05:15:01;102995.06;;;5.57;100.00
8160;BME280;27404;52.398;9.646;2023-02-12T05:17:26;103001.50;;;5.56;100.00
8160;BME280;27404;52.398;9.646;2023-02-12T05:19:52;102996.22;;;5.54;100.00
8160;BME280;27404;52.398;9.646;2023-02-12T05:22:17;102991.38;;;5.48;100.00
8160;BME280;27404;52.398;9.646;2023-02-12T05:24:43;102992.22;;;5.48;100.00
8160;BME280;27404;52.398;9.646;2023-02-12T05:27:09;102988.78;;;5.46;100.00
8160;BME280;27404;52.398;9.646;2023-02-12T05:29:35;102985.09;;;5.47;100.00
8160;BME280;27404;52.398;9.646;2023-02-12T05:32:01;102988.38;;;5.51;100.00
8160;BME280;27404;52.398;9.646;2023-02-12T05:34:26;102988.94;;;5.55;100.00
8160;BME280;27404;52.398;9.646;2023-02-12T05:36:52;102989.09;;;5.53;100.00
8160;BME280;27404;52.398;9.646;2023-02-12T05:39:17;102991.94;;;5.52;100.00
8160;BME280;27404;52.398;9.646;2023-02-12T05:41:43;102986.50;;;5.52;100.00
8160;BME280;27404;52.398;9.646;2023-02-12T05:44:08;102995.66;;;5.51;100.00
8160;BME280;27404;52.398;9.646;2023-02-12T05:46:36;102999.81;;;5.45;100.00
8160;BME280;27404;52.398;9.646;2023-02-12T05:49:02;103001.81;;;5.43;100.00
8160;BME280;27404;52.398;9.646;2023-02-12T05:51:28;102997.22;;;5.43;100.00
8160;BME280;27404;52.398;9.646;2023-02-12T05:53:58;103004.22;;;5.46;100.00
8160;BME280;27404;52.398;9.646;2023-02-12T05:57:01;102999.09;;;5.43;100.00
8160;BME280;27404;52.398;9.646;2023-02-12T05:59:21;102998.09;;;5.44;100.00
8160;BME280;27404;52.398;9.646;2023-02-12T06:01:49;103001.81;;;5.43;100.00
8160;BME280;27404;52.398;9.646;2023-02-12T06:04:21;103005.22;;;5.45;100.00
8160;BME280;27404;52.398;9.646;2023-02-12T06:06:48;103007.94;;;5.45;100.00
8160;BME280;27404;52.398;9.646;2023-02-12T06:09:14;103002.34;;;5.46;100.00
8160;BME280;27404;52.398;9.646;2023-02-12T06:11:40;103011.22;;;5.48;100.00
8160;BME280;27404;52.398;9.646;2023-02-12T06:14:07;103009.66;;;5.46;100.00
8160;BME280;27404;52.398;9.646;2023-02-12T06:16:33;103005.94;;;5.47;100.00
8160;BME280;27404;52.398;9.646;2023-02-12T06:19:01;103012.38;;;5.46;100.00
8160;BME280;27404;52.398;9.646;2023-02-12T06:21:27;103010.06;;;5.41;100.00
8160;BME280;27404;52.398;9.646;2023-02-12T06:23:52;103009.94;;;5.43;100.00
8160;BME280;27404;52.398;9.646;2023-02-12T06:26:19;103016.09;;;5.45;100.00
8160;BME280;27404;52.398;9.646;2023-02-12T06:28:45;103019.63;;;5.45;100.00
8160;BME280;27404;52.398;9.646;2023-02-12T06:31:25;103014.22;;;5.45;100.00
8160;BME280;27404;52.398;9.646;2023-02-12T06:33:53;103008.06;;;5.43;100.00
8160;BME280;27404;52.398;9.646;2023-02-12T06:36:19;103018.78;;;5.45;100.00
8160;BME280;27404;52.398;9.646;2023-02-12T06:38:45;103019.78;;;5.44;100.00
8160;BME280;27404;52.398;9.646;2023-02-12T06:41:11;103017.91;;;5.44;100.00
8160;BME280;27404;52.398;9.646;2023-02-12T06:43:37;103031.06;;;5.49;100.00
8160;BME280;27404;52.398;9.646;2023-02-12T06:46:02;103030.91;;;5.51;100.00
8160;BME280;27404;52.398;9.646;2023-02-12T06:48:28;103031.50;;;5.54;100.00
8160;BME280;27404;52.398;9.646;2023-02-12T06:50:54;103028.63;;;5.56;100.00
8160;BME280;27404;52.398;9.646;2023-02-12T06:53:19;103043.06;;;5.56;100.00
8160;BME280;27404;52.398;9.646;2023-02-12T06:55:45;103038.78;;;5.54;100.00
8160;BME280;27404;52.398;9.646;2023-02-12T06:58:10;103038.94;;;5.52;100.00
8160;BME280;27404;52.398;9.646;2023-02-12T07:00:35;103042.34;;;5.54;100.00
8160;BME280;27404;52.398;9.646;2023-02-12T07:03:01;103049.63;;;5.54;100.00
8160;BME280;27404;52.398;9.646;2023-02-12T07:05:26;103051.34;;;5.55;100.00
8160;BME280;27404;52.398;9.646;2023-02-12T07:07:52;103053.06;;;5.56;100.00
8160;BME280;27404;52.398;9.646;2023-02-12T07:10:18;103060.19;;;5.57;100.00
8160;BME280;27404;52.398;9.646;2023-02-12T07:12:44;103058.06;;;5.60;100.00
8160;BME280;27404;52.398;9.646;2023-02-12T07:15:10;103059.63;;;5.63;100.00
8160;BME280;27404;52.398;9.646;2023-02-12T07:17:35;103065.06;;;5.63;100.00
8160;BME280;27404;52.398;9.646;2023-02-12T07:20:01;103071.63;;;5.60;100.00
8160;BME280;27404;52.398;9.646;2023-02-12T07:22:27;103069.03;;;5.69;100.00
8160;BME280;27404;52.398;9.646;2023-02-12T07:24:52;103066.50;;;5.67;100.00
8160;BME280;27404;52.398;9.646;2023-02-12T07:27:17;103075.06;;;5.72;100.00
8160;BME280;27404;52.398;9.646;2023-02-12T07:29:43;103073.19;;;5.73;100.00
8160;BME280;27404;52.398;9.646;2023-02-12T07:32:08;103076.50;;;5.76;100.00
8160;BME280;27404;52.398;9.646;2023-02-12T07:34:34;103081.47;;;5.81;100.00
8160;BME280;27404;52.398;9.646;2023-02-12T07:36:59;103076.63;;;5.85;100.00
8160;BME280;27404;52.398;9.646;2023-02-12T07:39:25;103071.91;;;5.87;100.00
8160;BME280;27404;52.398;9.646;2023-02-12T07:41:50;103075.78;;;5.94;100.00
8160;BME280;27404;52.398;9.646;2023-02-12T07:44:16;103070.19;;;5.96;100.00
8160;BME280;27404;52.398;9.646;2023-02-12T07:46:46;103076.63;;;5.95;100.00
8160;BME280;27404;52.398;9.646;2023-02-12T07:49:18;103064.03;;;5.93;100.00
8160;BME280;27404;52.398;9.646;2023-02-12T07:51:45;103068.31;;;5.86;100.00
8160;BME280;27404;52.398;9.646;2023-02-12T07:54:11;103070.75;;;5.89;100.00
8160;BME280;27404;52.398;9.646;2023-02-12T07:56:37;103075.91;;;5.92;100.00
8160;BME280;27404;52.398;9.646;2023-02-12T07:59:09;103067.31;;;5.97;100.00
8160;BME280;27404;52.398;9.646;2023-02-12T08:01:36;103070.72;;;5.99;100.00
8160;BME280;27404;52.398;9.646;2023-02-12T08:04:06;103079.34;;;6.04;100.00
8160;BME280;27404;52.398;9.646;2023-02-12T08:06:34;103072.19;;;6.03;100.00
8160;BME280;27404;52.398;9.646;2023-02-12T08:09:02;103083.91;;;6.14;100.00
8160;BME280;27404;52.398;9.646;2023-02-12T08:11:28;103074.03;;;6.13;100.00
8160;BME280;27404;52.398;9.646;2023-02-12T08:13:57;103080.75;;;6.18;100.00
8160;BME280;27404;52.398;9.646;2023-02-12T08:16:24;103073.03;;;6.24;100.00
8160;BME280;27404;52.398;9.646;2023-02-12T08:18:50;103082.19;;;6.22;100.00
8160;BME280;27404;52.398;9.646;2023-02-12T08:21:19;103079.31;;;6.24;100.00
8160;BME280;27404;52.398;9.646;2023-02-12T08:23:45;103074.88;;;6.23;100.00
8160;BME280;27404;52.398;9.646;2023-02-12T08:26:24;103091.44;;;6.30;100.00
8160;BME280;27404;52.398;9.646;2023-02-12T08:28:58;103084.72;;;6.34;100.00
8160;BME280;27404;52.398;9.646;2023-02-12T08:31:27;103085.84;;;6.41;100.00
8160;BME280;27404;52.398;9.646;2023-02-12T08:33:54;103087.97;;;6.47;100.00
8160;BME280;27404;52.398;9.646;2023-02-12T08:36:28;103092.69;;;6.55;100.00
8160;BME280;27404;52.398;9.646;2023-02-12T08:38:57;103095.69;;;6.52;100.00
8160;BME280;27404;52.398;9.646;2023-02-12T08:41:25;103093.94;;;6.61;100.00
8160;BME280;27404;52.398;9.646;2023-02-12T08:43:52;103095.28;;;6.47;100.00
8160;BME280;27404;52.398;9.646;2023-02-12T08:46:20;103095.00;;;6.50;100.00
8160;BME280;27404;52.398;9.646;2023-02-12T08:48:47;103098.41;;;6.52;100.00
8160;BME280;27404;52.398;9.646;2023-02-12T08:51:15;103098.84;;;6.57;100.00
8160;BME280;27404;52.398;9.646;2023-02-12T08:53:43;103087.38;;;6.54;100.00
8160;BME280;27404;52.398;9.646;2023-02-12T08:56:11;103102.13;;;6.51;100.00
8160;BME280;27404;52.398;9.646;2023-02-12T08:58:37;103108.13;;;6.55;100.00
8160;BME280;27404;52.398;9.646;2023-02-12T09:01:03;103106.22;;;6.65;100.00
8160;BME280;27404;52.398;9.646;2023-02-12T09:03:29;103116.22;;;6.74;100.00
8160;BME280;27404;52.398;9.646;2023-02-12T09:05:54;103115.75;;;6.79;100.00
8160;BME280;27404;52.398;9.646;2023-02-12T09:08:20;103109.00;;;6.83;100.00
8160;BME280;27404;52.398;9.646;2023-02-12T09:10:45;103117.59;;;6.88;100.00
8160;BME280;27404;52.398;9.646;2023-02-12T09:13:12;103122.88;;;6.90;100.00
8160;BME280;27404;52.398;9.646;2023-02-12T09:15:39;103119.47;;;6.88;100.00
8160;BME280;27404;52.398;9.646;2023-02-12T09:18:06;103114.44;;;6.83;100.00
8160;BME280;27404;52.398;9.646;2023-02-12T09:20:32;103120.16;;;6.90;100.00
8160;BME280;27404;52.398;9.646;2023-02-12T09:23:01;103125.59;;;6.90;100.00
8160;BME280;27404;52.398;9.646;2023-02-12T09:25:26;103125.19;;;6.85;100.00
8160;BME280;27404;52.398;9.646;2023-02-12T09:27:52;103124.13;;;6.95;100.00
8160;BME280;27404;52.398;9.646;2023-02-12T09:30:19;103133.47;;;6.93;100.00
8160;BME280;27404;52.398;9.646;2023-02-12T09:32:44;103127.09;;;6.74;100.00
8160;BME280;27404;52.398;9.646;2023-02-12T09:35:09;103127.03;;;6.84;100.00
8160;BME280;27404;52.398;9.646;2023-02-12T09:37:37;103132.06;;;6.79;100.00
8160;BME280;27404;52.398;9.646;2023-02-12T09:40:05;103132.94;;;6.79;100.00
8160;BME280;27404;52.398;9.646;2023-02-12T09:45:19;103140.22;;;6.89;100.00
8160;BME280;27404;52.398;9.646;2023-02-12T09:50:32;103146.00;;;7.04;100.00
8160;BME280;27404;52.398;9.646;2023-02-12T09:53:00;103143.91;;;7.25;100.00
8160;BME280;27404;52.398;9.646;2023-02-12T09:55:30;103144.25;;;7.13;100.00
8160;BME280;27404;52.398;9.646;2023-02-12T09:58:00;103146.53;;;7.17;100.00
8160;BME280;27404;52.398;9.646;2023-02-12T10:00:28;103141.91;;;7.18;100.00
8160;BME280;27404;52.398;9.646;2023-02-12T10:02:59;103148.06;;;7.20;100.00
8160;BME280;27404;52.398;9.646;2023-02-12T10:05:47;103148.72;;;7.32;100.00
8160;BME280;27404;52.398;9.646;2023-02-12T10:10:53;103142.94;;;7.45;100.00
8160;BME280;27404;52.398;9.646;2023-02-12T10:21:28;103154.00;;;7.79;100.00
8160;BME280;27404;52.398;9.646;2023-02-12T10:26:41;103158.22;;;7.92;100.00
8160;BME280;27404;52.398;9.646;2023-02-12T10:29:16;103150.81;;;8.02;100.00
8160;BME280;27404;52.398;9.646;2023-02-12T10:31:47;103153.22;;;8.05;100.00
8160;BME280;27404;52.398;9.646;2023-02-12T10:34:18;103155.81;;;8.07;100.00
8160;BME280;27404;52.398;9.646;2023-02-12T10:36:46;103150.41;;;7.97;100.00
8160;BME280;27404;52.398;9.646;2023-02-12T10:39:28;103162.09;;;8.07;100.00
8160;BME280;27404;52.398;9.646;2023-02-12T10:44:29;103150.09;;;8.00;100.00
8160;BME280;27404;52.398;9.646;2023-02-12T10:46:55;103159.69;;;8.04;100.00
8160;BME280;27404;52.398;9.646;2023-02-12T10:49:21;103158.84;;;8.04;100.00
8160;BME280;27404;52.398;9.646;2023-02-12T10:51:57;103152.59;;;8.11;100.00
8160;BME280;27404;52.398;9.646;2023-02-12T10:54:37;103150.19;;;8.08;100.00
8160;BME280;27404;52.398;9.646;2023-02-12T10:57:26;103155.63;;;8.08;100.00
8160;BME280;27404;52.398;9.646;2023-02-12T10:59:56;103151.69;;;8.03;100.00
8160;BME280;27404;52.398;9.646;2023-02-12T11:02:37;103148.25;;;8.00;100.00
8160;BME280;27404;52.398;9.646;2023-02-12T11:05:22;103148.16;;;8.10;100.00
8160;BME280;27404;52.398;9.646;2023-02-12T11:07:50;103154.00;;;8.15;100.00
8160;BME280;27404;52.398;9.646;2023-02-12T11:10:20;103147.22;;;8.20;100.00
8160;BME280;27404;52.398;9.646;2023-02-12T11:12:50;103146.38;;;8.19;100.00
8160;BME280;27404;52.398;9.646;2023-02-12T11:15:24;103140.63;;;8.22;100.00
8160;BME280;27404;52.398;9.646;2023-02-12T11:20:31;103139.81;;;8.30;100.00
8160;BME280;27404;52.398;9.646;2023-02-12T11:23:04;103136.06;;;8.31;100.00
8160;BME280;27404;52.398;9.646;2023-02-12T11:25:32;103137.00;;;8.22;100.00
8160;BME280;27404;52.398;9.646;2023-02-12T11:28:15;103139.28;;;8.26;100.00
8160;BME280;27404;52.398;9.646;2023-02-12T11:33:23;103134.19;;;8.32;100.00
8160;BME280;27404;52.398;9.646;2023-02-12T11:36:13;103129.72;;;8.22;100.00
8160;BME280;27404;52.398;9.646;2023-02-12T11:38:38;103122.22;;;8.24;100.00
8160;BME280;27404;52.398;9.646;2023-02-12T11:41:26;103126.66;;;8.25;100.00
8160;BME280;27404;52.398;9.646;2023-02-12T11:43:54;103126.88;;;8.32;100.00
8160;BME280;27404;52.398;9.646;2023-02-12T11:46:23;103117.19;;;8.38;100.00
8160;BME280;27404;52.398;9.646;2023-02-12T11:48:50;103124.41;;;8.47;100.00
8160;BME280;27404;52.398;9.646;2023-02-12T11:51:19;103120.31;;;8.43;100.00
8160;BME280;27404;52.398;9.646;2023-02-12T11:53:51;103119.56;;;8.51;100.00
8160;BME280;27404;52.398;9.646;2023-02-12T11:56:18;103117.03;;;8.57;100.00
8160;BME280;27404;52.398;9.646;2023-02-12T11:58:45;103125.75;;;8.61;100.00
8160;BME280;27404;52.398;9.646;2023-02-12T12:03:55;103117.75;;;8.41;100.00
8160;BME280;27404;52.398;9.646;2023-02-12T12:09:17;103109.97;;;8.28;100.00
8160;BME280;27404;52.398;9.646;2023-02-12T12:12:36;103110.72;;;8.12;100.00
8160;BME280;27404;52.398;9.646;2023-02-12T12:14:51;103107.41;;;8.00;100.00
8160;BME280;27404;52.398;9.646;2023-02-12T12:17:59;103110.81;;;8.03;100.00
8160;BME280;27404;52.398;9.646;2023-02-12T12:20:55;103106.38;;;8.02;100.00
8160;BME280;27404;52.398;9.646;2023-02-12T12:26:30;103105.59;;;7.91;100.00
8160;BME280;27404;52.398;9.646;2023-02-12T12:29:28;103099.16;;;7.92;100.00
8160;BME280;27404;52.398;9.646;2023-02-12T12:32:02;103097.66;;;7.80;100.00
8160;BME280;27404;52.398;9.646;2023-02-12T12:34:29;103105.78;;;7.90;100.00
8160;BME280;27404;52.398;9.646;2023-02-12T12:37:25;103106.53;;;7.82;100.00
8160;BME280;27404;52.398;9.646;2023-02-12T12:40:06;103100.47;;;7.88;100.00
8160;BME280;27404;52.398;9.646;2023-02-12T12:43:13;103094.88;;;7.90;100.00
8160;BME280;27404;52.398;9.646;2023-02-12T12:48:25;103088.94;;;7.94;100.00
8160;BME280;27404;52.398;9.646;2023-02-12T13:04:59;103080.31;;;7.81;100.00
8160;BME280;27404;52.398;9.646;2023-02-12T13:27:17;103061.81;;;7.84;100.00
8160;BME280;27404;52.398;9.646;2023-02-12T13:29:58;103064.69;;;7.83;100.00
8160;BME280;27404;52.398;9.646;2023-02-12T13:32:28;103068.50;;;7.90;100.00
8160;BME280;27404;52.398;9.646;2023-02-12T13:34:55;103069.13;;;7.84;100.00
8160;BME280;27404;52.398;9.646;2023-02-12T13:37:35;103064.16;;;7.79;100.00
8160;BME280;27404;52.398;9.646;2023-02-12T13:40:04;103061.81;;;7.84;100.00
8160;BME280;27404;52.398;9.646;2023-02-12T13:42:46;103056.44;;;7.75;100.00
8160;BME280;27404;52.398;9.646;2023-02-12T13:58:53;103048.00;;;8.04;100.00
8160;BME280;27404;52.398;9.646;2023-02-12T14:01:44;103044.31;;;8.13;100.00
8160;BME280;27404;52.398;9.646;2023-02-12T14:04:25;103054.31;;;8.05;100.00
8160;BME280;27404;52.398;9.646;2023-02-12T14:06:52;103048.91;;;8.13;100.00
8160;BME280;27404;52.398;9.646;2023-02-12T14:09:21;103050.56;;;8.06;100.00
8160;BME280;27404;52.398;9.646;2023-02-12T14:11:52;103052.75;;;8.02;100.00
8160;BME280;27404;52.398;9.646;2023-02-12T14:14:45;103048.03;;;7.86;100.00
8160;BME280;27404;52.398;9.646;2023-02-12T14:20:23;103056.63;;;7.73;100.00
8160;BME280;27404;52.398;9.646;2023-02-12T14:28:17;103057.63;;;7.72;100.00
8160;BME280;27404;52.398;9.646;2023-02-12T14:33:43;103054.72;;;7.74;100.00
8160;BME280;27404;52.398;9.646;2023-02-12T14:36:16;103063.22;;;7.70;100.00
8160;BME280;27404;52.398;9.646;2023-02-12T14:46:51;103061.75;;;7.58;100.00
8160;BME280;27404;52.398;9.646;2023-02-12T14:49:31;103066.94;;;7.51;100.00
8160;BME280;27404;52.398;9.646;2023-02-12T14:52:05;103069.94;;;7.58;100.00
8160;BME280;27404;52.398;9.646;2023-02-12T14:54:42;103070.28;;;7.63;100.00
8160;BME280;27404;52.398;9.646;2023-02-12T14:57:47;103070.28;;;7.63;100.00
8160;BME280;27404;52.398;9.646;2023-02-12T15:02:52;103066.13;;;7.51;100.00
8160;BME280;27404;52.398;9.646;2023-02-12T15:08:17;103073.63;;;7.39;100.00
8160;BME280;27404;52.398;9.646;2023-02-12T15:10:49;103072.47;;;7.41;100.00
8160;BME280;27404;52.398;9.646;2023-02-12T15:13:50;103074.94;;;7.35;100.00
8160;BME280;27404;52.398;9.646;2023-02-12T15:21:53;103073.00;;;7.27;100.00
8160;BME280;27404;52.398;9.646;2023-02-12T15:24:23;103060.09;;;7.29;100.00
8160;BME280;27404;52.398;9.646;2023-02-12T15:26:52;103069.09;;;7.30;100.00
8160;BME280;27404;52.398;9.646;2023-02-12T15:29:25;103057.69;;;7.26;100.00
8160;BME280;27404;52.398;9.646;2023-02-12T15:32:02;103065.31;;;7.22;100.00
8160;BME280;27404;52.398;9.646;2023-02-12T15:34:31;103064.00;;;7.26;100.00
8160;BME280;27404;52.398;9.646;2023-02-12T15:36:59;103065.16;;;7.24;100.00
8160;BME280;27404;52.398;9.646;2023-02-12T15:39:26;103063.59;;;7.21;100.00
8160;BME280;27404;52.398;9.646;2023-02-12T15:41:53;103069.19;;;7.20;100.00
8160;BME280;27404;52.398;9.646;2023-02-12T15:44:29;103072.78;;;7.20;100.00
8160;BME280;27404;52.398;9.646;2023-02-12T15:47:00;103066.97;;;7.05;100.00
8160;BME280;27404;52.398;9.646;2023-02-12T15:49:32;103068.28;;;7.01;100.00